Time;durP1;ratioP1;P1;durP2;ratioP2;P2;SDS_P1;SDS_P2;PMS_P1;PMS_P2;Temp;Humidity;BMP_temperature;BMP_pressure;BME280_temperature;BME280_humidity;BME280_pressure;Samples;Min_cycle;Max_cycle;Signal;HPM_P1;HPM_P2
2022/12/26 00:00:02;;;;;;;7.23;7.03;;;22.60;71.30;;;;;;5112804;28;20866;-65
2022/12/26 00:02:29;;;;;;;6.70;6.60;;;22.60;71.40;;;;;;5122077;27;20463;-64
2022/12/26 00:04:55;;;;;;;6.80;6.70;;;22.60;71.30;;;;;;5137274;27;20567;-64
2022/12/26 00:07:24;;;;;;;6.90;6.70;;;22.60;71.30;;;;;;5137012;27;20527;-64
2022/12/26 00:09:50;;;;;;;6.97;6.77;;;22.50;71.40;;;;;;5136763;27;20444;-64
2022/12/26 00:12:17;;;;;;;6.80;6.67;;;22.50;71.40;;;;;;5136803;27;20547;-64
2022/12/26 00:14:44;;;;;;;6.70;6.50;;;22.50;71.50;;;;;;5136656;27;20429;-63
2022/12/26 00:17:11;;;;;;;6.60;6.47;;;22.50;71.50;;;;;;5117481;27;20540;-63
2022/12/26 00:19:37;;;;;;;7.90;7.60;;;22.50;71.60;;;;;;5115717;28;20939;-64
2022/12/26 00:22:05;;;;;;;6.70;6.60;;;22.50;71.60;;;;;;5115657;28;20460;-64
2022/12/26 00:24:33;;;;;;;6.80;6.70;;;22.50;71.70;;;;;;5115763;28;20491;-64
2022/12/26 00:27:00;;;;;;;6.70;6.60;;;22.50;71.70;;;;;;5115816;28;20528;-64
2022/12/26 00:29:27;;;;;;;7.17;6.97;;;22.40;71.70;;;;;;5115744;28;20887;-64
2022/12/26 00:31:53;;;;;;;7.47;7.27;;;22.40;71.70;;;;;;5114317;28;20548;-63
2022/12/26 00:34:20;;;;;;;7.33;7.13;;;22.40;71.80;;;;;;5116001;28;20536;-64
2022/12/26 00:36:47;;;;;;;6.80;6.50;;;22.40;71.80;;;;;;5115885;28;20529;-63
2022/12/26 00:39:16;;;;;;;6.07;5.97;;;22.40;71.90;;;;;;5115841;28;20529;-63
2022/12/26 00:41:44;;;;;;;6.70;6.50;;;22.30;71.80;;;;;;5115561;28;20497;-64
2022/12/26 00:44:11;;;;;;;6.80;6.60;;;22.30;71.90;;;;;;5115521;28;20437;-64
2022/12/26 00:46:38;;;;;;;6.50;6.30;;;22.40;72.20;;;;;;5115474;28;20524;-64
2022/12/26 00:49:04;;;;;;;6.67;6.47;;;22.30;72.10;;;;;;5115227;28;20512;-63
2022/12/26 00:51:31;;;;;;;6.07;5.97;;;22.30;72.10;;;;;;5115215;28;21026;-63
2022/12/26 00:53:58;;;;;;;6.40;6.20;;;22.30;72.20;;;;;;5115637;28;20452;-63
2022/12/26 00:56:25;;;;;;;6.50;6.40;;;22.30;72.20;;;;;;5115738;28;21017;-63
2022/12/26 00:58:53;;;;;;;7.13;7.03;;;22.30;72.20;;;;;;5115208;28;20445;-63
2022/12/26 01:01:22;;;;;;;6.20;6.10;;;22.20;72.10;;;;;;5115303;28;20524;-64
2022/12/26 01:03:50;;;;;;;6.57;6.37;;;22.30;72.30;;;;;;5128697;27;21043;-64
2022/12/26 01:06:17;;;;;;;6.63;6.53;;;22.20;72.20;;;;;;5114979;28;21006;-63
2022/12/26 01:08:44;;;;;;;6.43;6.33;;;22.20;72.10;;;;;;5115449;28;20532;-64
2022/12/26 01:11:14;;;;;;;6.50;6.30;;;22.20;72.30;;;;;;5115089;28;20449;-64
2022/12/26 01:13:42;;;;;;;7.27;7.07;;;22.20;72.20;;;;;;5114533;28;20446;-61
2022/12/26 01:16:10;;;;;;;6.97;6.87;;;22.20;72.20;;;;;;5115585;28;20441;-64
2022/12/26 01:18:37;;;;;;;6.50;6.40;;;22.20;72.40;;;;;;5115064;28;20538;-63
2022/12/26 01:21:08;;;;;;;6.73;6.63;;;22.10;72.30;;;;;;5114697;28;21172;-63
2022/12/26 01:23:35;;;;;;;6.60;6.40;;;22.10;72.30;;;;;;5115010;28;20553;-64
2022/12/26 01:26:04;;;;;;;6.50;6.40;;;22.10;72.30;;;;;;5114942;28;20487;-64
2022/12/26 01:28:31;;;;;;;6.00;5.90;;;22.10;72.40;;;;;;5114727;28;20456;-62
2022/12/26 01:31:01;;;;;;;7.43;7.23;;;22.10;72.50;;;;;;5114807;28;20467;-63
2022/12/26 01:33:29;;;;;;;6.90;6.80;;;22.10;72.50;;;;;;5114849;28;20472;-63
2022/12/26 01:35:56;;;;;;;6.53;6.43;;;22.10;72.50;;;;;;5113735;28;20448;-63
2022/12/26 01:38:23;;;;;;;7.00;6.80;;;22.10;72.60;;;;;;5113835;28;20452;-62
2022/12/26 01:41:15;;;;;;;6.57;6.47;;;22.10;72.70;;;;;;5113695;28;20449;-64
2022/12/26 01:43:49;;;;;;;6.40;6.30;;;22.10;72.70;;;;;;5113700;28;20978;-63
2022/12/26 01:46:18;;;;;;;6.77;6.67;;;22.00;72.60;;;;;;5113644;28;20481;-63
2022/12/26 01:48:47;;;;;;;6.90;6.70;;;22.00;72.80;;;;;;5113637;28;20813;-62
2022/12/26 01:51:16;;;;;;;6.27;6.17;;;22.00;72.90;;;;;;5113570;28;20448;-62
2022/12/26 01:53:47;;;;;;;6.47;6.30;;;22.00;72.80;;;;;;5113364;28;20780;-61
2022/12/26 01:56:18;;;;;;;6.70;6.60;;;22.00;72.90;;;;;;5113622;28;20444;-62
2022/12/26 01:58:49;;;;;;;6.80;6.60;;;22.00;73.00;;;;;;5113383;28;20442;-63
2022/12/26 02:01:18;;;;;;;6.90;6.73;;;22.00;73.00;;;;;;5113205;28;20441;-62
2022/12/26 02:06:33;;;;;;;6.40;6.30;;;21.90;73.00;;;;;;5133978;27;20475;-63
2022/12/26 02:09:00;;;;;;;6.97;6.77;;;21.90;72.80;;;;;;5123478;27;20958;-63
2022/12/26 02:11:33;;;;;;;6.53;6.43;;;21.90;73.10;;;;;;5113168;28;20441;-63
2022/12/26 02:14:01;;;;;;;6.53;6.40;;;21.90;73.10;;;;;;5113301;28;20460;-63
2022/12/26 02:16:28;;;;;;;6.20;6.10;;;21.90;73.20;;;;;;5113247;28;20434;-63
2022/12/26 02:18:57;;;;;;;6.43;6.33;;;21.90;73.20;;;;;;5112916;28;20456;-63
2022/12/26 02:21:50;;;;;;;6.67;6.57;;;21.80;73.10;;;;;;5112608;28;20525;-63
2022/12/26 02:24:40;;;;;;;7.20;7.00;;;21.80;73.20;;;;;;5112589;28;20450;-61
2022/12/26 02:27:21;;;;;;;6.70;6.60;;;21.80;73.40;;;;;;5113012;28;20438;-61
2022/12/26 02:30:07;;;;;;;6.30;6.20;;;21.80;73.30;;;;;;5112757;28;20522;-63
2022/12/26 02:33:05;;;;;;;6.90;6.70;;;21.80;73.30;;;;;;5103042;28;20877;-62
2022/12/26 02:35:46;;;;;;;6.50;6.40;;;21.80;73.40;;;;;;5090605;28;20947;-62
2022/12/26 02:38:29;;;;;;;7.10;6.90;;;21.80;73.20;;;;;;5112853;28;20445;-62
2022/12/26 02:41:08;;;;;;;6.50;6.40;;;21.80;73.40;;;;;;5112477;28;20449;-63
2022/12/26 02:43:42;;;;;;;6.70;6.50;;;21.80;73.60;;;;;;5112567;28;20468;-63
2022/12/26 02:49:14;;;;;;;6.70;6.60;;;21.80;73.80;;;;;;5112549;28;20413;-63
2022/12/26 03:14:28;;;;;;;6.53;6.43;;;21.60;74.40;;;;;;5112373;28;20823;-61
2022/12/26 03:19:59;;;;;;;6.60;6.40;;;21.60;74.70;;;;;;5112013;28;20439;-61
2022/12/26 03:22:32;;;;;;;6.10;6.00;;;21.60;75.50;;;;;;5112102;28;20465;-63
2022/12/26 03:27:46;;;;;;;6.43;6.33;;;21.60;74.50;;;;;;5112229;28;20421;-63
2022/12/26 03:32:58;;;;;;;6.33;6.23;;;21.60;74.60;;;;;;5111802;28;20554;-62
2022/12/26 03:35:27;;;;;;;6.80;6.50;;;21.60;74.60;;;;;;5112133;28;20437;-62
2022/12/26 03:37:57;;;;;;;6.30;6.20;;;21.50;74.50;;;;;;5116142;28;20446;-62
2022/12/26 04:20:38;;;;;;;6.67;6.47;;;21.40;75.70;;;;;;5098478;28;20463;-63
2022/12/26 04:45:41;;;;;;;6.30;6.20;;;21.30;76.30;;;;;;5115048;28;20479;-62
2022/12/26 04:50:53;;;;;;;6.30;6.10;;;21.30;76.40;;;;;;5114855;28;20429;-62
2022/12/26 04:53:20;;;;;;;6.17;6.07;;;21.30;76.50;;;;;;5114135;28;20461;-62
2022/12/26 04:55:47;;;;;;;6.40;6.30;;;21.30;76.60;;;;;;5114888;28;20449;-62
2022/12/26 04:58:14;;;;;;;6.50;6.40;;;21.30;76.50;;;;;;5114742;28;20542;-62
2022/12/26 05:00:42;;;;;;;6.10;6.00;;;21.30;76.50;;;;;;5114529;28;20532;-62
2022/12/26 05:11:28;;;;;;;6.20;6.10;;;21.20;76.50;;;;;;5113580;28;20432;-62
2022/12/26 05:13:56;;;;;;;6.10;6.00;;;21.20;76.50;;;;;;5114364;28;20441;-62
2022/12/26 05:30:19;;;;;;;6.63;6.53;;;21.20;76.60;;;;;;5114017;28;20463;-62
2022/12/26 05:35:32;;;;;;;6.90;6.80;;;21.20;76.60;;;;;;5114266;28;20416;-63
2022/12/26 05:37:59;;;;;;;6.63;6.43;;;21.20;76.60;;;;;;5113954;28;20440;-63
2022/12/26 05:40:26;;;;;;;6.37;6.17;;;21.20;76.70;;;;;;5113679;28;20807;-62
2022/12/26 05:42:53;;;;;;;6.40;6.27;;;21.20;76.70;;;;;;5113462;28;20545;-63
2022/12/26 05:45:20;;;;;;;6.30;6.20;;;21.20;76.60;;;;;;5113816;28;20441;-63
2022/12/26 05:47:48;;;;;;;6.80;6.60;;;21.20;76.60;;;;;;5113908;28;20441;-62
2022/12/26 05:50:15;;;;;;;6.83;6.73;;;21.20;76.40;;;;;;5113526;28;20449;-63
2022/12/26 05:52:42;;;;;;;6.57;6.47;;;21.20;76.20;;;;;;5113732;28;20465;-62
2022/12/26 05:55:09;;;;;;;6.63;6.43;;;21.20;76.10;;;;;;5113667;28;20540;-62
2022/12/26 05:57:36;;;;;;;6.23;6.13;;;21.20;76.20;;;;;;5113562;28;20467;-63
2022/12/26 06:00:04;;;;;;;7.00;6.70;;;21.10;76.00;;;;;;5111666;28;20532;-63
2022/12/26 06:02:30;;;;;;;6.87;6.77;;;21.10;76.00;;;;;;5121789;27;20452;-63
2022/12/26 06:04:58;;;;;;;6.20;5.97;;;21.10;76.40;;;;;;5133937;27;20449;-62
2022/12/26 06:07:25;;;;;;;6.13;6.03;;;21.10;76.20;;;;;;5134048;27;20485;-62
2022/12/26 06:09:52;;;;;;;6.20;6.10;;;21.10;76.50;;;;;;5133753;27;20471;-61
2022/12/26 06:12:19;;;;;;;6.50;6.40;;;21.10;76.30;;;;;;5133771;27;20543;-62
2022/12/26 06:14:46;;;;;;;6.20;6.10;;;21.10;76.40;;;;;;5126743;27;20852;-62
2022/12/26 06:17:13;;;;;;;7.17;6.97;;;21.10;76.50;;;;;;5112453;28;20533;-63
2022/12/26 06:19:40;;;;;;;6.27;6.17;;;21.10;76.50;;;;;;5112835;28;20934;-63
2022/12/26 06:22:08;;;;;;;5.70;5.60;;;21.10;76.60;;;;;;5112929;28;20467;-63
2022/12/26 06:24:35;;;;;;;6.20;6.00;;;21.10;76.60;;;;;;5113003;28;20441;-63
2022/12/26 06:27:02;;;;;;;6.20;6.10;;;21.10;76.80;;;;;;5112968;28;20482;-63
2022/12/26 06:29:28;;;;;;;6.73;6.63;;;21.10;76.80;;;;;;5112901;28;20441;-62
2022/12/26 06:31:55;;;;;;;6.53;6.43;;;21.10;76.70;;;;;;5112472;28;20549;-63
2022/12/26 06:34:22;;;;;;;6.47;6.37;;;21.10;76.60;;;;;;5113313;28;20530;-63
2022/12/26 06:36:49;;;;;;;6.60;6.50;;;21.10;76.60;;;;;;5114323;28;20444;-63
2022/12/26 06:39:17;;;;;;;6.33;6.23;;;21.10;76.60;;;;;;5113979;28;20549;-63
2022/12/26 06:41:44;;;;;;;5.93;5.83;;;21.10;76.70;;;;;;5113492;28;20465;-63
2022/12/26 06:44:11;;;;;;;7.13;6.90;;;21.10;76.80;;;;;;5113917;28;21023;-63
2022/12/26 06:46:38;;;;;;;6.10;6.00;;;21.10;76.90;;;;;;5113340;28;20848;-63
2022/12/26 06:49:06;;;;;;;6.70;6.50;;;21.10;76.90;;;;;;5112605;28;20441;-62
2022/12/26 06:51:34;;;;;;;6.40;6.30;;;21.10;77.00;;;;;;5112424;28;20464;-61
2022/12/26 06:54:02;;;;;;;6.30;6.20;;;21.10;77.10;;;;;;5112663;28;20445;-62
2022/12/26 06:56:33;;;;;;;6.50;6.40;;;21.10;77.10;;;;;;5112525;28;20445;-63
2022/12/26 06:59:01;;;;;;;6.60;6.40;;;21.10;77.10;;;;;;5112386;28;20445;-63
2022/12/26 07:01:32;;;;;;;6.53;6.33;;;21.10;77.10;;;;;;5112132;28;20537;-63
2022/12/26 07:03:59;;;;;;;6.30;6.20;;;21.10;77.00;;;;;;5092065;28;20530;-61
2022/12/26 07:06:28;;;;;;;6.70;6.60;;;21.00;76.90;;;;;;5091832;28;20850;-61
2022/12/26 07:08:57;;;;;;;6.70;6.60;;;21.00;77.00;;;;;;5091843;28;20458;-62
2022/12/26 07:11:27;;;;;;;6.70;6.60;;;21.00;77.20;;;;;;5091514;28;20434;-62
2022/12/26 07:13:56;;;;;;;7.03;6.93;;;21.00;77.30;;;;;;5092385;28;20454;-62
2022/12/26 07:16:23;;;;;;;7.30;7.20;;;21.00;77.20;;;;;;5112371;28;20538;-62
2022/12/26 07:18:52;;;;;;;6.47;6.37;;;21.00;77.20;;;;;;5111986;28;20934;-62
2022/12/26 07:21:21;;;;;;;6.00;5.90;;;21.00;77.20;;;;;;5112010;28;20912;-62
2022/12/26 07:23:47;;;;;;;6.37;6.27;;;21.00;77.20;;;;;;5112248;28;20434;-62
2022/12/26 07:26:14;;;;;;;7.20;7.00;;;21.00;77.20;;;;;;5111938;28;20473;-62
2022/12/26 07:28:41;;;;;;;6.70;6.60;;;21.00;77.40;;;;;;5112120;28;20442;-62
2022/12/26 07:31:15;;;;;;;6.70;6.50;;;21.00;77.20;;;;;;5111396;28;20528;-63
2022/12/26 07:33:42;;;;;;;6.30;6.20;;;21.00;77.30;;;;;;5113176;28;20448;-64
2022/12/26 07:36:09;;;;;;;6.83;6.63;;;21.00;77.20;;;;;;5112509;28;21007;-63
2022/12/26 07:38:36;;;;;;;6.57;6.47;;;21.00;77.80;;;;;;5112440;28;20945;-64
2022/12/26 07:41:56;;;;;;;6.30;6.20;;;21.00;77.10;;;;;;5112375;28;20447;-62
2022/12/26 07:43:49;;;;;;;6.60;6.50;;;21.00;77.00;;;;;;5112651;28;20437;-64
2022/12/26 07:46:18;;;;;;;6.90;6.80;;;21.00;77.10;;;;;;5111844;28;20556;-64
2022/12/26 07:48:45;;;;;;;6.87;6.77;;;20.90;76.80;;;;;;5112329;28;20820;-63
2022/12/26 07:51:12;;;;;;;7.13;6.93;;;20.90;76.60;;;;;;5112514;28;20536;-63
2022/12/26 07:53:39;;;;;;;7.10;6.97;;;20.90;76.60;;;;;;5112411;28;20465;-64
2022/12/26 07:56:06;;;;;;;6.50;6.40;;;20.90;76.30;;;;;;5112655;28;20498;-63
2022/12/26 07:58:33;;;;;;;6.73;6.63;;;20.90;76.30;;;;;;5112932;28;20463;-64
2022/12/26 08:01:01;;;;;;;6.30;6.20;;;20.90;76.40;;;;;;5112312;28;20895;-64
2022/12/26 08:03:29;;;;;;;6.67;6.57;;;20.90;76.20;;;;;;5112025;28;20469;-64
2022/12/26 08:05:57;;;;;;;6.70;6.60;;;20.90;76.30;;;;;;5112309;28;20447;-65
2022/12/26 08:08:24;;;;;;;6.60;6.50;;;20.90;76.30;;;;;;5112260;28;20437;-65
2022/12/26 08:10:58;;;;;;;6.63;6.53;;;20.90;76.30;;;;;;5112138;28;20449;-65
2022/12/26 08:13:25;;;;;;;6.83;6.73;;;20.90;76.30;;;;;;5112179;28;20840;-65
2022/12/26 08:15:52;;;;;;;6.77;6.67;;;20.90;77.20;;;;;;5112297;28;20538;-63
2022/12/26 08:18:18;;;;;;;6.87;6.77;;;20.90;76.30;;;;;;5111705;28;20442;-64
2022/12/26 08:20:47;;;;;;;7.20;7.07;;;20.90;76.20;;;;;;5111509;28;20490;-64
2022/12/26 08:23:14;;;;;;;7.80;7.60;;;20.90;76.20;;;;;;5112940;28;20529;-64
2022/12/26 08:25:41;;;;;;;6.97;6.87;;;20.90;76.30;;;;;;5115646;28;20467;-65
2022/12/26 08:28:08;;;;;;;7.07;6.97;;;20.90;76.20;;;;;;5115655;28;20564;-64
2022/12/26 08:30:34;;;;;;;6.90;6.80;;;20.90;76.30;;;;;;5115156;28;20814;-64
2022/12/26 08:33:01;;;;;;;7.20;7.00;;;20.90;76.20;;;;;;5115649;28;20476;-64
2022/12/26 08:35:29;;;;;;;7.60;7.40;;;20.90;76.30;;;;;;5115679;28;20931;-64
2022/12/26 08:37:57;;;;;;;7.40;7.20;;;20.80;76.10;;;;;;5115678;28;20433;-63
2022/12/26 08:40:24;;;;;;;7.20;7.10;;;20.80;76.40;;;;;;5115068;28;20540;-64
2022/12/26 08:42:50;;;;;;;7.47;7.37;;;20.80;76.20;;;;;;5115389;28;20465;-64
2022/12/26 08:45:17;;;;;;;7.20;7.10;;;20.80;76.30;;;;;;5115218;28;20528;-64
2022/12/26 08:47:44;;;;;;;7.63;7.53;;;20.80;76.10;;;;;;5115363;28;20476;-64
2022/12/26 08:50:11;;;;;;;7.30;7.13;;;20.80;76.10;;;;;;5114897;28;20437;-62
2022/12/26 08:52:38;;;;;;;7.83;7.70;;;20.80;76.00;;;;;;5114648;28;21107;-64
2022/12/26 08:55:07;;;;;;;7.47;7.17;;;20.80;76.90;;;;;;5114583;28;20448;-64
2022/12/26 08:57:34;;;;;;;6.80;6.70;;;20.80;76.20;;;;;;5114682;28;20528;-63
2022/12/26 09:00:03;;;;;;;6.67;6.57;;;20.80;76.10;;;;;;5114592;28;20954;-64
2022/12/26 09:02:30;;;;;;;6.80;6.70;;;20.80;76.00;;;;;;5122941;27;20453;-63
2022/12/26 09:04:57;;;;;;;7.23;7.13;;;20.80;76.10;;;;;;5135172;27;20498;-63
2022/12/26 09:07:24;;;;;;;6.97;6.87;;;20.70;76.10;;;;;;5135153;27;20559;-63
2022/12/26 09:09:51;;;;;;;7.40;7.30;;;20.80;76.10;;;;;;5114926;27;20467;-62
2022/12/26 09:12:19;;;;;;;7.20;7.00;;;20.80;76.20;;;;;;5114513;28;20475;-62
2022/12/26 09:14:47;;;;;;;7.60;7.40;;;20.70;75.90;;;;;;5114511;28;20536;-63
2022/12/26 09:17:14;;;;;;;7.10;7.00;;;20.70;75.90;;;;;;5114339;28;20453;-63
2022/12/26 09:19:41;;;;;;;7.30;7.20;;;20.70;75.90;;;;;;5114122;28;20460;-63
2022/12/26 09:24:52;;;;;;;7.30;7.20;;;20.70;75.80;;;;;;5114129;28;20440;-63
2022/12/26 09:27:21;;;;;;;7.63;7.53;;;20.70;75.80;;;;;;5113913;28;20484;-62
2022/12/26 09:29:47;;;;;;;7.73;7.63;;;20.70;75.90;;;;;;5113827;28;20449;-64
2022/12/26 09:32:14;;;;;;;7.73;7.53;;;20.70;76.20;;;;;;5113997;28;20544;-63
2022/12/26 09:34:41;;;;;;;7.80;7.60;;;20.70;76.60;;;;;;5113848;28;20868;-61
2022/12/26 09:37:08;;;;;;;7.07;6.97;;;20.70;76.50;;;;;;5114065;28;20438;-60
2022/12/26 09:39:35;;;;;;;7.20;7.10;;;20.80;76.40;;;;;;5113773;28;20464;-63
2022/12/26 09:42:13;;;;;;;7.40;7.20;;;20.80;76.00;;;;;;5113543;28;20461;-61
2022/12/26 09:44:50;;;;;;;8.13;7.93;;;20.90;75.80;;;;;;5113818;28;20452;-63
2022/12/26 09:47:29;;;;;;;6.93;6.83;;;21.00;75.70;;;;;;5113688;28;20481;-62
2022/12/26 09:50:00;;;;;;;7.30;7.20;;;21.00;75.40;;;;;;5113294;28;20442;-61
2022/12/26 09:52:37;;;;;;;7.37;7.27;;;21.00;75.30;;;;;;5113590;28;20457;-62
2022/12/26 09:55:25;;;;;;;8.17;7.97;;;21.00;75.20;;;;;;5113715;28;20449;-61
2022/12/26 09:57:55;;;;;;;7.27;7.00;;;21.00;75.10;;;;;;5113382;28;20498;-62
2022/12/26 10:00:27;;;;;;;7.60;7.50;;;20.90;75.20;;;;;;5113336;28;20849;-61
2022/12/26 10:02:56;;;;;;;7.80;7.60;;;20.90;75.30;;;;;;5125004;27;20532;-61
2022/12/26 10:05:27;;;;;;;7.60;7.47;;;20.90;75.30;;;;;;5134082;27;20811;-62
2022/12/26 10:07:59;;;;;;;7.70;7.57;;;20.90;75.40;;;;;;5133922;27;20484;-60
2022/12/26 10:10:35;;;;;;;7.50;7.30;;;20.90;75.70;;;;;;5133779;27;20440;-59
2022/12/26 10:13:11;;;;;;;7.00;6.90;;;20.90;75.70;;;;;;5133896;27;20464;-60
2022/12/26 10:15:45;;;;;;;7.40;7.20;;;20.90;75.70;;;;;;5092776;28;20861;-63
2022/12/26 10:18:28;;;;;;;7.80;7.60;;;20.80;75.80;;;;;;5092828;28;20445;-59
2022/12/26 10:21:09;;;;;;;7.27;7.17;;;20.90;78.10;;;;;;5092801;28;20826;-60
2022/12/26 10:23:38;;;;;;;7.10;6.90;;;20.90;77.30;;;;;;5092970;28;20470;-61
2022/12/26 10:26:10;;;;;;;7.10;7.00;;;20.90;77.70;;;;;;5092859;28;20529;-62
2022/12/26 10:28:44;;;;;;;7.00;6.90;;;21.00;77.80;;;;;;5092413;28;20873;-64
2022/12/26 10:31:20;;;;;;;7.27;7.17;;;21.00;77.40;;;;;;5106855;28;20445;-63
2022/12/26 10:33:52;;;;;;;7.50;7.40;;;21.10;77.30;;;;;;5112968;28;20445;-61
2022/12/26 10:36:28;;;;;;;7.40;7.30;;;21.20;77.30;;;;;;5113274;28;20516;-61
2022/12/26 10:38:58;;;;;;;7.40;7.30;;;21.20;77.10;;;;;;5111969;28;20444;-61
2022/12/26 10:41:29;;;;;;;7.50;7.30;;;21.30;76.90;;;;;;5112095;28;20485;-61
2022/12/26 10:43:56;;;;;;;7.47;7.37;;;21.30;76.40;;;;;;5112699;28;20450;-62
2022/12/26 10:46:56;;;;;;;7.30;7.10;;;21.40;76.20;;;;;;5112201;28;20528;-61
2022/12/26 10:49:25;;;;;;;7.40;7.20;;;21.40;75.90;;;;;;5112667;28;20516;-57
2022/12/26 10:51:54;;;;;;;7.20;7.10;;;21.40;75.60;;;;;;5112224;28;20461;-59
2022/12/26 10:54:21;;;;;;;7.40;7.30;;;21.50;75.10;;;;;;5112340;28;20469;-62
2022/12/26 10:56:50;;;;;;;7.53;7.33;;;21.50;75.10;;;;;;5112641;28;21048;-62
2022/12/26 10:59:22;;;;;;;7.50;7.40;;;21.50;75.10;;;;;;5112309;28;20448;-58
2022/12/26 11:01:50;;;;;;;7.47;7.37;;;21.50;75.20;;;;;;5112584;28;20457;-59
2022/12/26 11:04:21;;;;;;;7.70;7.50;;;21.60;75.30;;;;;;5112540;28;20433;-60
2022/12/26 11:06:51;;;;;;;7.60;7.50;;;21.60;75.10;;;;;;5112692;28;20516;-60
2022/12/26 11:09:34;;;;;;;8.10;7.90;;;21.60;75.20;;;;;;5111788;28;20498;-58
2022/12/26 11:12:01;;;;;;;8.10;7.90;;;21.60;74.80;;;;;;5112420;28;20552;-59
2022/12/26 11:14:35;;;;;;;7.63;7.53;;;21.60;74.50;;;;;;5112321;28;20476;-59
2022/12/26 11:17:06;;;;;;;7.57;7.40;;;21.70;74.40;;;;;;5112312;28;20441;-60
2022/12/26 11:19:36;;;;;;;7.57;7.30;;;21.70;74.10;;;;;;5112187;28;20488;-61
2022/12/26 11:22:22;;;;;;;7.10;7.00;;;21.70;74.00;;;;;;5113927;28;20465;-56
2022/12/26 11:25:18;;;;;;;7.60;7.50;;;21.70;73.80;;;;;;5111787;28;20520;-55
2022/12/26 11:27:47;;;;;;;7.90;7.70;;;21.70;73.50;;;;;;5111797;28;20481;-59
2022/12/26 11:30:27;;;;;;;7.90;7.60;;;21.80;73.60;;;;;;5112001;28;20437;-58
2022/12/26 11:33:11;;;;;;;7.47;7.27;;;21.80;73.00;;;;;;5112131;28;20977;-56
2022/12/26 11:35:45;;;;;;;8.00;7.83;;;21.70;73.10;;;;;;5112210;28;20448;-62
2022/12/26 11:38:33;;;;;;;8.00;7.80;;;21.70;73.90;;;;;;5112188;28;20528;-60
2022/12/26 11:43:47;;;;;;;8.00;7.90;;;21.80;74.20;;;;;;5112219;28;20421;-62
2022/12/26 11:46:14;;;;;;;8.60;8.40;;;21.80;74.30;;;;;;5112056;28;20521;-61
2022/12/26 11:48:47;;;;;;;8.23;8.03;;;21.80;74.10;;;;;;5111843;28;20560;-60
2022/12/26 11:51:14;;;;;;;8.77;8.57;;;21.80;74.70;;;;;;5111525;28;20441;-60
2022/12/26 11:53:41;;;;;;;7.53;7.33;;;21.80;74.20;;;;;;5111909;28;20442;-59
2022/12/26 11:56:09;;;;;;;7.93;7.50;;;21.90;74.00;;;;;;5111975;28;20450;-59
2022/12/26 11:58:36;;;;;;;8.87;8.47;;;21.90;73.50;;;;;;5115115;28;20532;-61
2022/12/26 12:01:12;;;;;;;7.90;7.70;;;21.90;73.50;;;;;;5115616;28;20536;-54
2022/12/26 12:03:43;;;;;;;8.40;8.20;;;21.90;73.30;;;;;;5115800;28;20517;-62
2022/12/26 12:06:26;;;;;;;8.43;8.23;;;21.90;73.10;;;;;;5115478;28;20468;-62
2022/12/26 12:09:01;;;;;;;8.07;7.87;;;21.90;72.60;;;;;;5115625;28;20487;-60
2022/12/26 12:11:37;;;;;;;7.87;7.67;;;21.90;72.60;;;;;;5115689;28;20879;-60
2022/12/26 12:14:36;;;;;;;7.80;7.50;;;21.90;73.60;;;;;;5115470;28;20441;-60
2022/12/26 12:17:14;;;;;;;7.87;7.67;;;22.00;73.60;;;;;;5110279;28;20445;-61
2022/12/26 12:20:17;;;;;;;7.97;7.77;;;22.10;73.60;;;;;;5115170;28;20532;-62
2022/12/26 12:22:57;;;;;;;8.00;7.70;;;22.20;73.70;;;;;;5115347;28;20672;-62
2022/12/26 12:25:39;;;;;;;8.10;7.90;;;22.30;73.90;;;;;;5115290;28;20946;-62
2022/12/26 12:28:18;;;;;;;7.33;7.20;;;22.40;74.30;;;;;;5115177;28;20476;-62
2022/12/26 12:30:55;;;;;;;8.50;8.30;;;22.40;74.30;;;;;;5114846;28;20451;-58
2022/12/26 12:33:38;;;;;;;7.70;7.50;;;22.50;73.80;;;;;;5115257;28;20501;-61
2022/12/26 12:36:11;;;;;;;8.30;8.10;;;22.50;73.90;;;;;;5115104;28;20484;-62
2022/12/26 12:38:55;;;;;;;7.60;7.50;;;22.60;74.10;;;;;;5115308;28;20528;-62
2022/12/26 12:41:39;;;;;;;7.53;7.33;;;22.70;73.70;;;;;;5115070;28;20452;-62
2022/12/26 12:44:13;;;;;;;7.30;7.17;;;22.70;73.50;;;;;;5115108;28;20499;-59
2022/12/26 12:46:47;;;;;;;6.90;6.80;;;22.70;74.00;;;;;;5114454;28;20445;-63
2022/12/26 12:49:32;;;;;;;7.20;7.00;;;22.80;74.00;;;;;;5114761;28;20529;-58
2022/12/26 12:52:17;;;;;;;7.00;6.80;;;22.80;73.90;;;;;;5114890;28;20468;-63
2022/12/26 12:55:10;;;;;;;7.30;7.10;;;22.90;73.70;;;;;;5114810;28;20441;-60
2022/12/26 12:57:42;;;;;;;7.03;6.93;;;22.90;72.80;;;;;;5114843;28;21029;-59
2022/12/26 13:00:16;;;;;;;7.37;7.17;;;22.90;73.30;;;;;;5114843;28;20840;-58
2022/12/26 13:02:50;;;;;;;6.90;6.80;;;23.00;74.90;;;;;;5114482;28;20553;-58
2022/12/26 13:05:30;;;;;;;7.07;6.97;;;23.00;74.10;;;;;;5114770;28;20806;-63
2022/12/26 13:08:04;;;;;;;7.53;7.43;;;23.00;72.90;;;;;;5114517;28;20534;-63
2022/12/26 13:10:35;;;;;;;7.27;7.17;;;23.10;72.40;;;;;;5113633;28;20446;-60
2022/12/26 13:13:13;;;;;;;6.97;6.87;;;23.10;70.90;;;;;;5114255;28;20598;-59
2022/12/26 13:15:44;;;;;;;7.47;7.37;;;23.20;71.00;;;;;;5114469;28;20604;-60
2022/12/26 13:18:15;;;;;;;7.37;7.17;;;23.20;70.10;;;;;;5114265;28;20442;-55
2022/12/26 13:20:46;;;;;;;6.60;6.50;;;23.20;69.70;;;;;;5113653;28;20445;-62
2022/12/26 13:26:11;;;;;;;7.37;7.23;;;23.30;70.40;;;;;;5114374;28;20898;-60
2022/12/26 13:28:46;;;;;;;7.90;7.70;;;23.30;69.50;;;;;;5114200;28;20998;-61
2022/12/26 13:31:13;;;;;;;7.57;7.40;;;23.20;67.90;;;;;;5114257;28;20788;-58
2022/12/26 13:33:42;;;;;;;7.63;7.53;;;23.20;68.30;;;;;;5114653;28;20492;-55
2022/12/26 13:36:09;;;;;;;7.90;7.80;;;23.20;69.20;;;;;;5113812;28;20445;-59
2022/12/26 13:39:14;;;;;;;7.47;7.37;;;23.30;68.90;;;;;;5114047;28;20440;-59
2022/12/26 13:44:33;;;;;;;8.10;7.70;;;23.30;68.40;;;;;;5114173;28;20425;-61
2022/12/26 13:47:01;;;;;;;7.90;7.70;;;23.40;68.20;;;;;;5113925;28;20438;-62
2022/12/26 13:49:34;;;;;;;7.67;7.57;;;23.40;67.90;;;;;;5113655;28;20517;-57
2022/12/26 13:52:32;;;;;;;7.40;7.20;;;23.40;67.90;;;;;;5113219;28;20548;-62
2022/12/26 13:55:28;;;;;;;7.60;7.50;;;23.40;67.60;;;;;;5107932;28;20442;-59
2022/12/26 13:58:26;;;;;;;8.30;8.10;;;23.50;67.30;;;;;;5113455;28;20445;-60
2022/12/26 14:00:58;;;;;;;7.37;7.27;;;23.50;67.00;;;;;;5113198;28;20456;-58
2022/12/26 14:03:53;;;;;;;9.00;8.80;;;23.50;67.00;;;;;;5113622;28;20458;-61
2022/12/26 14:06:43;;;;;;;8.90;8.70;;;23.50;67.00;;;;;;5113275;28;20454;-59
2022/12/26 14:09:31;;;;;;;8.67;8.47;;;23.50;67.00;;;;;;5113659;28;20487;-60
2022/12/26 14:12:17;;;;;;;8.03;7.83;;;23.50;66.50;;;;;;5113390;28;20496;-61
2022/12/26 14:14:58;;;;;;;7.73;7.53;;;23.40;66.70;;;;;;5110666;28;20456;-64
2022/12/26 14:17:35;;;;;;;8.60;8.40;;;23.40;66.80;;;;;;5113338;28;20528;-61
2022/12/26 14:20:13;;;;;;;8.20;8.00;;;23.30;67.00;;;;;;5112532;28;20463;-63
2022/12/26 14:22:50;;;;;;;7.90;7.70;;;23.40;67.10;;;;;;5112287;28;20506;-59
2022/12/26 14:25:23;;;;;;;7.70;7.60;;;23.40;67.40;;;;;;5113039;28;20537;-65
2022/12/26 14:27:57;;;;;;;7.57;7.40;;;23.50;68.30;;;;;;5112943;28;20449;-57
2022/12/26 14:30:31;;;;;;;7.10;7.00;;;23.50;67.00;;;;;;5112945;28;20490;-60
2022/12/26 14:33:17;;;;;;;7.17;7.07;;;23.50;65.70;;;;;;5112894;28;20472;-61
2022/12/26 14:35:52;;;;;;;7.50;7.20;;;23.40;66.30;;;;;;5112503;28;20473;-61
2022/12/26 14:38:38;;;;;;;7.57;7.47;;;23.40;67.30;;;;;;5112774;28;20437;-59
2022/12/26 14:41:07;;;;;;;7.63;7.43;;;23.40;67.50;;;;;;5112641;28;20450;-60
2022/12/26 14:43:36;;;;;;;6.70;6.60;;;23.40;67.80;;;;;;5112465;28;20471;-62
2022/12/26 14:46:10;;;;;;;7.53;7.33;;;23.40;68.30;;;;;;5112671;28;20529;-59
2022/12/26 14:48:57;;;;;;;7.93;7.70;;;23.40;67.50;;;;;;5112585;28;20477;-62
2022/12/26 14:51:39;;;;;;;7.50;7.30;;;23.40;67.30;;;;;;5112247;28;20453;-63
2022/12/26 14:54:36;;;;;;;7.23;7.13;;;23.40;67.20;;;;;;5112746;28;20448;-62
2022/12/26 14:57:39;;;;;;;7.77;7.57;;;23.40;67.00;;;;;;5112474;28;20528;-59
2022/12/26 15:00:32;;;;;;;7.40;7.20;;;23.40;67.50;;;;;;5112357;28;20803;-61
2022/12/26 15:03:24;;;;;;;7.80;7.60;;;23.40;66.10;;;;;;5112569;28;20461;-60
2022/12/26 15:05:51;;;;;;;7.50;7.30;;;23.30;65.60;;;;;;5112101;28;20456;-60
2022/12/26 15:08:40;;;;;;;7.50;7.30;;;23.30;65.70;;;;;;5112459;28;20484;-60
2022/12/26 15:11:46;;;;;;;7.90;7.70;;;23.40;66.30;;;;;;5112378;28;20492;-61
2022/12/26 15:14:47;;;;;;;7.10;6.90;;;23.50;66.00;;;;;;5112397;28;20448;-62
2022/12/26 15:17:26;;;;;;;7.33;7.13;;;23.50;66.60;;;;;;5112651;28;20468;-61
2022/12/26 15:20:27;;;;;;;8.30;8.10;;;23.60;67.20;;;;;;5111995;28;20449;-61
2022/12/26 15:23:30;;;;;;;7.33;7.13;;;23.60;67.20;;;;;;5091805;28;20519;-62
2022/12/26 15:26:33;;;;;;;7.50;7.30;;;23.60;66.30;;;;;;5092096;28;20442;-63
2022/12/26 15:29:25;;;;;;;8.63;8.13;;;23.70;65.40;;;;;;5091939;28;20572;-63
2022/12/26 15:32:03;;;;;;;7.90;7.70;;;23.70;66.60;;;;;;5080854;28;20471;-63
2022/12/26 15:34:51;;;;;;;8.27;8.07;;;23.70;65.30;;;;;;5091940;28;20811;-60